sensor_id;sensor_type;location;lat;lon;timestamp;P1;durP1;ratioP1;P2;durP2;ratioP2
43449;SDS011;29041;42.266;23.110;2023-11-21T00:01:06;6.05;;;3.67;;
43449;SDS011;29041;42.266;23.110;2023-11-21T00:03:54;8.80;;;3.97;;
43449;SDS011;29041;42.266;23.110;2023-11-21T00:06:41;8.10;;;4.13;;
43449;SDS011;29041;42.266;23.110;2023-11-21T00:09:29;8.50;;;4.22;;
43449;SDS011;29041;42.266;23.110;2023-11-21T00:12:17;15.85;;;4.28;;
43449;SDS011;29041;42.266;23.110;2023-11-21T00:15:04;14.80;;;4.25;;
43449;SDS011;29041;42.266;23.110;2023-11-21T00:17:54;8.27;;;4.13;;
43449;SDS011;29041;42.266;23.110;2023-11-21T00:20:41;5.05;;;4.20;;
43449;SDS011;29041;42.266;23.110;2023-11-21T00:23:29;6.95;;;3.60;;
43449;SDS011;29041;42.266;23.110;2023-11-21T00:26:17;12.43;;;4.15;;
43449;SDS011;29041;42.266;23.110;2023-11-21T00:29:04;7.03;;;3.83;;
43449;SDS011;29041;42.266;23.110;2023-11-21T00:31:53;6.40;;;3.75;;
43449;SDS011;29041;42.266;23.110;2023-11-21T00:34:41;6.45;;;3.30;;
43449;SDS011;29041;42.266;23.110;2023-11-21T00:37:28;10.35;;;4.28;;
43449;SDS011;29041;42.266;23.110;2023-11-21T00:40:17;5.28;;;4.35;;
43449;SDS011;29041;42.266;23.110;2023-11-21T00:43:07;7.53;;;4.15;;
43449;SDS011;29041;42.266;23.110;2023-11-21T00:45:55;13.65;;;5.53;;
43449;SDS011;29041;42.266;23.110;2023-11-21T00:48:42;7.88;;;3.95;;
43449;SDS011;29041;42.266;23.110;2023-11-21T00:51:29;6.05;;;4.90;;
43449;SDS011;29041;42.266;23.110;2023-11-21T00:54:16;6.75;;;3.92;;
43449;SDS011;29041;42.266;23.110;2023-11-21T00:57:03;13.75;;;4.25;;
43449;SDS011;29041;42.266;23.110;2023-11-21T00:59:52;10.57;;;3.70;;
43449;SDS011;29041;42.266;23.110;2023-11-21T01:02:39;11.73;;;4.30;;
43449;SDS011;29041;42.266;23.110;2023-11-21T01:05:26;9.60;;;5.22;;
43449;SDS011;29041;42.266;23.110;2023-11-21T01:08:13;17.10;;;5.75;;
43449;SDS011;29041;42.266;23.110;2023-11-21T01:11:00;11.07;;;4.60;;
43449;SDS011;29041;42.266;23.110;2023-11-21T01:13:48;11.65;;;5.47;;
43449;SDS011;29041;42.266;23.110;2023-11-21T01:16:36;17.80;;;6.82;;
43449;SDS011;29041;42.266;23.110;2023-11-21T01:19:23;9.77;;;5.05;;
43449;SDS011;29041;42.266;23.110;2023-11-21T01:22:10;11.02;;;5.00;;
43449;SDS011;29041;42.266;23.110;2023-11-21T01:24:58;5.68;;;3.40;;
43449;SDS011;29041;42.266;23.110;2023-11-21T01:27:45;17.20;;;5.15;;
43449;SDS011;29041;42.266;23.110;2023-11-21T01:30:32;10.15;;;4.45;;
43449;SDS011;29041;42.266;23.110;2023-11-21T01:33:22;8.90;;;5.43;;
43449;SDS011;29041;42.266;23.110;2023-11-21T01:36:10;6.18;;;3.40;;
43449;SDS011;29041;42.266;23.110;2023-11-21T01:38:57;6.80;;;3.50;;
43449;SDS011;29041;42.266;23.110;2023-11-21T01:41:44;15.70;;;5.82;;
43449;SDS011;29041;42.266;23.110;2023-11-21T01:44:31;7.28;;;3.53;;
43449;SDS011;29041;42.266;23.110;2023-11-21T01:47:18;5.47;;;3.95;;
43449;SDS011;29041;42.266;23.110;2023-11-21T01:50:08;7.15;;;3.08;;
43449;SDS011;29041;42.266;23.110;2023-11-21T01:52:58;11.67;;;3.73;;
43449;SDS011;29041;42.266;23.110;2023-11-21T01:55:48;6.70;;;2.33;;
43449;SDS011;29041;42.266;23.110;2023-11-21T01:58:35;4.88;;;2.58;;
43449;SDS011;29041;42.266;23.110;2023-11-21T02:01:23;5.40;;;3.10;;
43449;SDS011;29041;42.266;23.110;2023-11-21T02:04:11;10.15;;;3.28;;
43449;SDS011;29041;42.266;23.110;2023-11-21T02:07:00;6.95;;;3.17;;
43449;SDS011;29041;42.266;23.110;2023-11-21T02:09:47;6.97;;;3.38;;
43449;SDS011;29041;42.266;23.110;2023-11-21T02:12:34;9.70;;;3.20;;
43449;SDS011;29041;42.266;23.110;2023-11-21T02:15:22;5.35;;;2.35;;
43449;SDS011;29041;42.266;23.110;2023-11-21T02:18:12;3.05;;;2.55;;
43449;SDS011;29041;42.266;23.110;2023-11-21T02:21:00;6.10;;;2.92;;
43449;SDS011;29041;42.266;23.110;2023-11-21T02:23:50;6.10;;;2.63;;
43449;SDS011;29041;42.266;23.110;2023-11-21T02:26:37;6.45;;;3.05;;
43449;SDS011;29041;42.266;23.110;2023-11-21T02:29:24;9.05;;;3.58;;
43449;SDS011;29041;42.266;23.110;2023-11-21T02:32:13;7.88;;;3.67;;
43449;SDS011;29041;42.266;23.110;2023-11-21T02:35:02;5.95;;;3.35;;
43449;SDS011;29041;42.266;23.110;2023-11-21T02:37:53;9.85;;;3.50;;
43449;SDS011;29041;42.266;23.110;2023-11-21T02:40:42;3.95;;;2.28;;
43449;SDS011;29041;42.266;23.110;2023-11-21T02:43:29;12.85;;;3.13;;
43449;SDS011;29041;42.266;23.110;2023-11-21T02:46:16;6.70;;;3.72;;
43449;SDS011;29041;42.266;23.110;2023-11-21T02:49:03;6.57;;;3.63;;
43449;SDS011;29041;42.266;23.110;2023-11-21T02:51:51;5.32;;;3.40;;
43449;SDS011;29041;42.266;23.110;2023-11-21T02:54:40;9.68;;;2.03;;
43449;SDS011;29041;42.266;23.110;2023-11-21T02:57:28;6.05;;;2.97;;
43449;SDS011;29041;42.266;23.110;2023-11-21T03:00:16;5.18;;;2.67;;
43449;SDS011;29041;42.266;23.110;2023-11-21T03:03:03;6.88;;;3.13;;
43449;SDS011;29041;42.266;23.110;2023-11-21T03:05:50;6.28;;;3.35;;
43449;SDS011;29041;42.266;23.110;2023-11-21T03:08:38;10.68;;;5.05;;
43449;SDS011;29041;42.266;23.110;2023-11-21T03:11:25;8.75;;;4.38;;
43449;SDS011;29041;42.266;23.110;2023-11-21T03:14:13;16.23;;;4.03;;
43449;SDS011;29041;42.266;23.110;2023-11-21T03:17:00;9.52;;;3.40;;
43449;SDS011;29041;42.266;23.110;2023-11-21T03:19:50;7.10;;;3.40;;
43449;SDS011;29041;42.266;23.110;2023-11-21T03:22:37;12.52;;;4.57;;
43449;SDS011;29041;42.266;23.110;2023-11-21T03:25:25;14.50;;;6.53;;
43449;SDS011;29041;42.266;23.110;2023-11-21T03:28:12;7.18;;;4.38;;
43449;SDS011;29041;42.266;23.110;2023-11-21T03:31:01;9.05;;;4.57;;
43449;SDS011;29041;42.266;23.110;2023-11-21T03:33:48;8.40;;;4.00;;
43449;SDS011;29041;42.266;23.110;2023-11-21T03:36:35;6.97;;;4.65;;
43449;SDS011;29041;42.266;23.110;2023-11-21T03:39:22;7.20;;;3.28;;
43449;SDS011;29041;42.266;23.110;2023-11-21T03:42:11;6.72;;;3.65;;
43449;SDS011;29041;42.266;23.110;2023-11-21T03:44:58;7.95;;;3.40;;
43449;SDS011;29041;42.266;23.110;2023-11-21T03:47:46;4.13;;;3.03;;
43449;SDS011;29041;42.266;23.110;2023-11-21T03:50:33;7.63;;;3.45;;
43449;SDS011;29041;42.266;23.110;2023-11-21T03:53:21;6.65;;;2.20;;
43449;SDS011;29041;42.266;23.110;2023-11-21T03:56:08;9.52;;;3.03;;
43449;SDS011;29041;42.266;23.110;2023-11-21T03:58:56;6.18;;;2.05;;
43449;SDS011;29041;42.266;23.110;2023-11-21T04:01:43;7.53;;;3.25;;
43449;SDS011;29041;42.266;23.110;2023-11-21T04:04:32;5.72;;;3.33;;
43449;SDS011;29041;42.266;23.110;2023-11-21T04:07:19;3.15;;;1.98;;
43449;SDS011;29041;42.266;23.110;2023-11-21T04:10:07;5.20;;;3.08;;
43449;SDS011;29041;42.266;23.110;2023-11-21T04:12:58;9.43;;;2.63;;
43449;SDS011;29041;42.266;23.110;2023-11-21T04:15:45;6.28;;;3.47;;
43449;SDS011;29041;42.266;23.110;2023-11-21T04:18:33;8.68;;;3.58;;
43449;SDS011;29041;42.266;23.110;2023-11-21T04:21:21;10.02;;;3.55;;
43449;SDS011;29041;42.266;23.110;2023-11-21T04:24:09;6.40;;;3.40;;
43449;SDS011;29041;42.266;23.110;2023-11-21T04:26:57;15.48;;;4.97;;
43449;SDS011;29041;42.266;23.110;2023-11-21T04:29:44;10.43;;;4.07;;
43449;SDS011;29041;42.266;23.110;2023-11-21T04:32:31;6.65;;;3.85;;
43449;SDS011;29041;42.266;23.110;2023-11-21T04:35:18;7.35;;;4.22;;
43449;SDS011;29041;42.266;23.110;2023-11-21T04:38:07;11.75;;;4.10;;
43449;SDS011;29041;42.266;23.110;2023-11-21T04:40:59;6.22;;;4.22;;
43449;SDS011;29041;42.266;23.110;2023-11-21T04:43:46;11.20;;;3.83;;
43449;SDS011;29041;42.266;23.110;2023-11-21T04:46:33;6.78;;;3.63;;
43449;SDS011;29041;42.266;23.110;2023-11-21T04:49:20;8.00;;;4.68;;
43449;SDS011;29041;42.266;23.110;2023-11-21T04:52:07;6.68;;;4.43;;
43449;SDS011;29041;42.266;23.110;2023-11-21T04:54:57;14.05;;;5.47;;
43449;SDS011;29041;42.266;23.110;2023-11-21T04:57:46;10.48;;;3.50;;
43449;SDS011;29041;42.266;23.110;2023-11-21T05:00:33;9.48;;;3.88;;
43449;SDS011;29041;42.266;23.110;2023-11-21T05:03:22;14.63;;;4.70;;
43449;SDS011;29041;42.266;23.110;2023-11-21T05:06:09;8.02;;;5.32;;
43449;SDS011;29041;42.266;23.110;2023-11-21T05:08:57;10.65;;;4.88;;
43449;SDS011;29041;42.266;23.110;2023-11-21T05:11:45;9.63;;;4.47;;
43449;SDS011;29041;42.266;23.110;2023-11-21T05:14:32;10.98;;;4.60;;
43449;SDS011;29041;42.266;23.110;2023-11-21T05:17:19;9.48;;;4.50;;
43449;SDS011;29041;42.266;23.110;2023-11-21T05:20:08;14.30;;;5.60;;
43449;SDS011;29041;42.266;23.110;2023-11-21T05:22:56;13.45;;;5.70;;
43449;SDS011;29041;42.266;23.110;2023-11-21T05:25:44;18.42;;;5.78;;
43449;SDS011;29041;42.266;23.110;2023-11-21T05:28:33;11.75;;;4.72;;
43449;SDS011;29041;42.266;23.110;2023-11-21T05:31:20;11.32;;;4.90;;
43449;SDS011;29041;42.266;23.110;2023-11-21T05:34:07;12.52;;;5.55;;
43449;SDS011;29041;42.266;23.110;2023-11-21T05:36:54;11.75;;;4.82;;
43449;SDS011;29041;42.266;23.110;2023-11-21T05:39:43;21.13;;;9.45;;
43449;SDS011;29041;42.266;23.110;2023-11-21T05:42:31;13.20;;;7.85;;
43449;SDS011;29041;42.266;23.110;2023-11-21T05:45:19;16.13;;;7.28;;
43449;SDS011;29041;42.266;23.110;2023-11-21T05:48:06;13.27;;;6.57;;
43449;SDS011;29041;42.266;23.110;2023-11-21T05:50:54;10.77;;;5.95;;
43449;SDS011;29041;42.266;23.110;2023-11-21T05:53:41;9.88;;;5.95;;
43449;SDS011;29041;42.266;23.110;2023-11-21T05:56:28;21.42;;;7.45;;
43449;SDS011;29041;42.266;23.110;2023-11-21T05:59:15;15.52;;;8.00;;
43449;SDS011;29041;42.266;23.110;2023-11-21T06:02:04;14.68;;;6.57;;
43449;SDS011;29041;42.266;23.110;2023-11-21T06:04:51;14.23;;;6.63;;
43449;SDS011;29041;42.266;23.110;2023-11-21T06:07:38;10.70;;;5.97;;
43449;SDS011;29041;42.266;23.110;2023-11-21T06:10:25;21.40;;;6.65;;
43449;SDS011;29041;42.266;23.110;2023-11-21T06:13:13;15.75;;;7.35;;
43449;SDS011;29041;42.266;23.110;2023-11-21T06:16:00;20.55;;;6.90;;
43449;SDS011;29041;42.266;23.110;2023-11-21T06:18:50;12.13;;;5.88;;
43449;SDS011;29041;42.266;23.110;2023-11-21T06:21:37;10.50;;;6.32;;
43449;SDS011;29041;42.266;23.110;2023-11-21T06:24:24;12.23;;;6.85;;
43449;SDS011;29041;42.266;23.110;2023-11-21T06:27:11;13.68;;;7.20;;
43449;SDS011;29041;42.266;23.110;2023-11-21T06:29:58;14.73;;;5.95;;
43449;SDS011;29041;42.266;23.110;2023-11-21T06:32:46;10.82;;;6.50;;
43449;SDS011;29041;42.266;23.110;2023-11-21T06:35:34;17.67;;;5.75;;
43449;SDS011;29041;42.266;23.110;2023-11-21T06:38:21;7.55;;;5.05;;
43449;SDS011;29041;42.266;23.110;2023-11-21T06:41:08;11.77;;;7.20;;
43449;SDS011;29041;42.266;23.110;2023-11-21T06:43:56;20.13;;;8.52;;
43449;SDS011;29041;42.266;23.110;2023-11-21T06:46:44;14.15;;;8.43;;
43449;SDS011;29041;42.266;23.110;2023-11-21T06:49:31;13.80;;;7.28;;
43449;SDS011;29041;42.266;23.110;2023-11-21T06:52:20;11.52;;;7.07;;
43449;SDS011;29041;42.266;23.110;2023-11-21T06:55:07;20.55;;;8.85;;
43449;SDS011;29041;42.266;23.110;2023-11-21T06:57:55;14.00;;;6.63;;
43449;SDS011;29041;42.266;23.110;2023-11-21T07:00:43;22.08;;;10.10;;
43449;SDS011;29041;42.266;23.110;2023-11-21T07:03:32;28.55;;;11.52;;
43449;SDS011;29041;42.266;23.110;2023-11-21T07:06:19;20.80;;;9.20;;
43449;SDS011;29041;42.266;23.110;2023-11-21T07:09:13;16.05;;;8.27;;
43449;SDS011;29041;42.266;23.110;2023-11-21T07:12:01;21.80;;;8.50;;
43449;SDS011;29041;42.266;23.110;2023-11-21T07:14:49;14.30;;;7.40;;
43449;SDS011;29041;42.266;23.110;2023-11-21T07:17:36;18.23;;;8.80;;
43449;SDS011;29041;42.266;23.110;2023-11-21T07:20:23;23.50;;;10.13;;
43449;SDS011;29041;42.266;23.110;2023-11-21T07:23:11;24.60;;;10.02;;
43449;SDS011;29041;42.266;23.110;2023-11-21T07:25:59;21.42;;;11.27;;
43449;SDS011;29041;42.266;23.110;2023-11-21T07:28:46;21.15;;;9.38;;
43449;SDS011;29041;42.266;23.110;2023-11-21T07:31:33;26.65;;;10.60;;
43449;SDS011;29041;42.266;23.110;2023-11-21T07:34:20;27.13;;;9.55;;
43449;SDS011;29041;42.266;23.110;2023-11-21T07:37:08;23.25;;;11.18;;
43449;SDS011;29041;42.266;23.110;2023-11-21T07:39:55;18.23;;;8.48;;
43449;SDS011;29041;42.266;23.110;2023-11-21T07:42:44;22.77;;;10.70;;
43449;SDS011;29041;42.266;23.110;2023-11-21T07:45:31;29.60;;;14.05;;
43449;SDS011;29041;42.266;23.110;2023-11-21T07:48:18;26.73;;;12.13;;
43449;SDS011;29041;42.266;23.110;2023-11-21T07:51:05;24.33;;;10.98;;
43449;SDS011;29041;42.266;23.110;2023-11-21T07:53:53;20.25;;;9.15;;
43449;SDS011;29041;42.266;23.110;2023-11-21T07:56:40;27.02;;;11.85;;
43449;SDS011;29041;42.266;23.110;2023-11-21T07:59:29;34.63;;;12.10;;
43449;SDS011;29041;42.266;23.110;2023-11-21T08:02:16;40.00;;;14.57;;
43449;SDS011;29041;42.266;23.110;2023-11-21T08:05:03;43.50;;;16.02;;
43449;SDS011;29041;42.266;23.110;2023-11-21T08:07:52;52.47;;;21.58;;
43449;SDS011;29041;42.266;23.110;2023-11-21T08:10:39;37.92;;;17.42;;
43449;SDS011;29041;42.266;23.110;2023-11-21T08:13:28;31.77;;;14.73;;
43449;SDS011;29041;42.266;23.110;2023-11-21T08:16:17;19.95;;;9.02;;
43449;SDS011;29041;42.266;23.110;2023-11-21T08:19:04;25.85;;;8.52;;
43449;SDS011;29041;42.266;23.110;2023-11-21T08:21:51;15.73;;;7.03;;
43449;SDS011;29041;42.266;23.110;2023-11-21T08:24:40;20.73;;;7.53;;
43449;SDS011;29041;42.266;23.110;2023-11-21T08:27:27;26.48;;;10.60;;
43449;SDS011;29041;42.266;23.110;2023-11-21T08:30:14;18.15;;;8.13;;
43449;SDS011;29041;42.266;23.110;2023-11-21T08:33:03;19.65;;;7.00;;
43449;SDS011;29041;42.266;23.110;2023-11-21T08:35:50;17.98;;;7.03;;
43449;SDS011;29041;42.266;23.110;2023-11-21T08:38:38;15.60;;;8.60;;
43449;SDS011;29041;42.266;23.110;2023-11-21T08:41:26;15.90;;;8.05;;
43449;SDS011;29041;42.266;23.110;2023-11-21T08:44:13;25.60;;;8.88;;
43449;SDS011;29041;42.266;23.110;2023-11-21T08:47:02;18.38;;;10.02;;
43449;SDS011;29041;42.266;23.110;2023-11-21T08:49:51;18.73;;;8.20;;
43449;SDS011;29041;42.266;23.110;2023-11-21T08:52:39;17.65;;;9.05;;
43449;SDS011;29041;42.266;23.110;2023-11-21T08:55:26;20.70;;;9.50;;
43449;SDS011;29041;42.266;23.110;2023-11-21T08:58:14;19.02;;;9.07;;
43449;SDS011;29041;42.266;23.110;2023-11-21T09:01:01;16.73;;;8.32;;
43449;SDS011;29041;42.266;23.110;2023-11-21T09:03:48;15.00;;;6.97;;
43449;SDS011;29041;42.266;23.110;2023-11-21T09:06:37;16.20;;;7.03;;
43449;SDS011;29041;42.266;23.110;2023-11-21T09:09:30;17.23;;;7.38;;
43449;SDS011;29041;42.266;23.110;2023-11-21T09:12:17;15.98;;;7.57;;
43449;SDS011;29041;42.266;23.110;2023-11-21T09:15:05;13.57;;;6.32;;
43449;SDS011;29041;42.266;23.110;2023-11-21T09:17:55;13.40;;;5.80;;
43449;SDS011;29041;42.266;23.110;2023-11-21T09:20:42;13.82;;;7.07;;
43449;SDS011;29041;42.266;23.110;2023-11-21T09:23:31;20.15;;;7.25;;
43449;SDS011;29041;42.266;23.110;2023-11-21T09:26:18;15.50;;;5.60;;
43449;SDS011;29041;42.266;23.110;2023-11-21T09:29:05;14.63;;;5.38;;
43449;SDS011;29041;42.266;23.110;2023-11-21T09:31:53;25.63;;;4.80;;
43449;SDS011;29041;42.266;23.110;2023-11-21T09:34:44;20.15;;;6.35;;
43449;SDS011;29041;42.266;23.110;2023-11-21T09:37:31;21.33;;;6.75;;
43449;SDS011;29041;42.266;23.110;2023-11-21T09:40:30;21.42;;;6.53;;
43449;SDS011;29041;42.266;23.110;2023-11-21T09:43:18;22.45;;;6.53;;
43449;SDS011;29041;42.266;23.110;2023-11-21T09:46:06;13.48;;;5.85;;
43449;SDS011;29041;42.266;23.110;2023-11-21T09:48:58;12.60;;;4.67;;
43449;SDS011;29041;42.266;23.110;2023-11-21T09:51:50;10.18;;;3.33;;
43449;SDS011;29041;42.266;23.110;2023-11-21T09:54:41;7.63;;;2.42;;
43449;SDS011;29041;42.266;23.110;2023-11-21T09:57:30;8.32;;;3.67;;
43449;SDS011;29041;42.266;23.110;2023-11-21T10:00:18;8.15;;;2.80;;
43449;SDS011;29041;42.266;23.110;2023-11-21T10:03:08;11.85;;;3.72;;
43449;SDS011;29041;42.266;23.110;2023-11-21T10:05:56;11.00;;;4.13;;
43449;SDS011;29041;42.266;23.110;2023-11-21T10:08:45;15.50;;;4.28;;
43449;SDS011;29041;42.266;23.110;2023-11-21T10:11:33;5.57;;;3.05;;
43449;SDS011;29041;42.266;23.110;2023-11-21T10:14:22;10.82;;;3.83;;
43449;SDS011;29041;42.266;23.110;2023-11-21T10:17:14;9.73;;;4.05;;
43449;SDS011;29041;42.266;23.110;2023-11-21T10:20:04;8.82;;;3.58;;
43449;SDS011;29041;42.266;23.110;2023-11-21T10:22:56;4.72;;;2.70;;
43449;SDS011;29041;42.266;23.110;2023-11-21T10:25:44;8.05;;;2.80;;
43449;SDS011;29041;42.266;23.110;2023-11-21T10:28:31;4.90;;;2.75;;
43449;SDS011;29041;42.266;23.110;2023-11-21T10:31:24;4.35;;;2.97;;
43449;SDS011;29041;42.266;23.110;2023-11-21T10:34:14;6.00;;;2.63;;
43449;SDS011;29041;42.266;23.110;2023-11-21T10:37:10;3.83;;;3.33;;
43449;SDS011;29041;42.266;23.110;2023-11-21T10:39:58;6.50;;;3.90;;
43449;SDS011;29041;42.266;23.110;2023-11-21T10:42:45;9.65;;;3.63;;
43449;SDS011;29041;42.266;23.110;2023-11-21T10:45:33;7.47;;;3.20;;
43449;SDS011;29041;42.266;23.110;2023-11-21T10:48:21;8.93;;;3.72;;
43449;SDS011;29041;42.266;23.110;2023-11-21T10:51:09;7.55;;;3.13;;
43449;SDS011;29041;42.266;23.110;2023-11-21T10:53:56;7.00;;;3.80;;
43449;SDS011;29041;42.266;23.110;2023-11-21T10:56:45;6.43;;;3.78;;
43449;SDS011;29041;42.266;23.110;2023-11-21T10:59:36;13.68;;;6.68;;
43449;SDS011;29041;42.266;23.110;2023-11-21T11:02:24;18.83;;;7.80;;
43449;SDS011;29041;42.266;23.110;2023-11-21T11:05:14;8.63;;;4.25;;
43449;SDS011;29041;42.266;23.110;2023-11-21T11:08:04;5.97;;;4.25;;
43449;SDS011;29041;42.266;23.110;2023-11-21T11:10:55;13.45;;;5.43;;
43449;SDS011;29041;42.266;23.110;2023-11-21T11:13:44;7.65;;;3.42;;
43449;SDS011;29041;42.266;23.110;2023-11-21T11:16:32;8.57;;;3.72;;
43449;SDS011;29041;42.266;23.110;2023-11-21T11:19:20;6.28;;;3.67;;
43449;SDS011;29041;42.266;23.110;2023-11-21T11:22:18;8.50;;;4.55;;
43449;SDS011;29041;42.266;23.110;2023-11-21T11:25:26;11.27;;;4.68;;
43449;SDS011;29041;42.266;23.110;2023-11-21T11:28:22;11.52;;;5.07;;
43449;SDS011;29041;42.266;23.110;2023-11-21T11:31:19;8.82;;;4.85;;
43449;SDS011;29041;42.266;23.110;2023-11-21T11:34:19;8.05;;;4.15;;
43449;SDS011;29041;42.266;23.110;2023-11-21T11:37:15;13.50;;;3.20;;
43449;SDS011;29041;42.266;23.110;2023-11-21T11:40:05;11.63;;;4.85;;
43449;SDS011;29041;42.266;23.110;2023-11-21T11:42:56;5.85;;;3.80;;
43449;SDS011;29041;42.266;23.110;2023-11-21T11:45:44;5.70;;;3.42;;
43449;SDS011;29041;42.266;23.110;2023-11-21T11:48:37;7.93;;;4.05;;
43449;SDS011;29041;42.266;23.110;2023-11-21T11:51:25;9.05;;;4.50;;
43449;SDS011;29041;42.266;23.110;2023-11-21T11:54:14;12.13;;;5.18;;
43449;SDS011;29041;42.266;23.110;2023-11-21T11:57:02;8.10;;;4.50;;
43449;SDS011;29041;42.266;23.110;2023-11-21T12:02:59;9.25;;;3.80;;
43449;SDS011;29041;42.266;23.110;2023-11-21T12:05:47;9.63;;;4.95;;
43449;SDS011;29041;42.266;23.110;2023-11-21T12:08:38;10.10;;;4.97;;
43449;SDS011;29041;42.266;23.110;2023-11-21T12:11:31;12.07;;;5.10;;
43449;SDS011;29041;42.266;23.110;2023-11-21T12:14:20;10.48;;;4.75;;
43449;SDS011;29041;42.266;23.110;2023-11-21T12:17:08;15.88;;;5.45;;
43449;SDS011;29041;42.266;23.110;2023-11-21T12:20:06;9.45;;;5.50;;
43449;SDS011;29041;42.266;23.110;2023-11-21T12:22:59;26.80;;;12.50;;
43449;SDS011;29041;42.266;23.110;2023-11-21T12:25:46;11.80;;;6.15;;
43449;SDS011;29041;42.266;23.110;2023-11-21T12:28:35;11.55;;;4.28;;
43449;SDS011;29041;42.266;23.110;2023-11-21T12:31:22;11.48;;;6.13;;
43449;SDS011;29041;42.266;23.110;2023-11-21T12:34:10;15.02;;;6.63;;
43449;SDS011;29041;42.266;23.110;2023-11-21T12:36:58;10.95;;;4.82;;
43449;SDS011;29041;42.266;23.110;2023-11-21T12:39:46;15.52;;;6.60;;
43449;SDS011;29041;42.266;23.110;2023-11-21T12:42:35;13.70;;;4.88;;
43449;SDS011;29041;42.266;23.110;2023-11-21T12:45:24;15.88;;;5.40;;
43449;SDS011;29041;42.266;23.110;2023-11-21T12:48:12;8.25;;;5.15;;
43449;SDS011;29041;42.266;23.110;2023-11-21T12:51:01;12.75;;;5.50;;
43449;SDS011;29041;42.266;23.110;2023-11-21T12:53:48;10.88;;;5.65;;
43449;SDS011;29041;42.266;23.110;2023-11-21T12:56:37;14.25;;;6.32;;
43449;SDS011;29041;42.266;23.110;2023-11-21T12:59:25;13.52;;;5.95;;
43449;SDS011;29041;42.266;23.110;2023-11-21T13:02:13;11.52;;;5.28;;
43449;SDS011;29041;42.266;23.110;2023-11-21T13:05:01;12.90;;;5.47;;
43449;SDS011;29041;42.266;23.110;2023-11-21T13:07:51;7.97;;;4.22;;
43449;SDS011;29041;42.266;23.110;2023-11-21T13:10:40;8.68;;;5.20;;
43449;SDS011;29041;42.266;23.110;2023-11-21T13:13:32;15.45;;;5.90;;
43449;SDS011;29041;42.266;23.110;2023-11-21T13:16:19;14.60;;;5.68;;
43449;SDS011;29041;42.266;23.110;2023-11-21T13:19:08;15.63;;;6.15;;
43449;SDS011;29041;42.266;23.110;2023-11-21T13:21:55;9.65;;;5.40;;
43449;SDS011;29041;42.266;23.110;2023-11-21T13:24:44;13.85;;;5.72;;
43449;SDS011;29041;42.266;23.110;2023-11-21T13:27:31;24.27;;;12.20;;
43449;SDS011;29041;42.266;23.110;2023-11-21T13:30:20;20.75;;;9.13;;
43449;SDS011;29041;42.266;23.110;2023-11-21T13:33:12;9.27;;;4.43;;
43449;SDS011;29041;42.266;23.110;2023-11-21T13:36:08;13.52;;;5.40;;
43449;SDS011;29041;42.266;23.110;2023-11-21T13:38:55;9.52;;;5.38;;
43449;SDS011;29041;42.266;23.110;2023-11-21T13:41:44;12.38;;;4.97;;
43449;SDS011;29041;42.266;23.110;2023-11-21T13:44:33;8.50;;;4.03;;
43449;SDS011;29041;42.266;23.110;2023-11-21T13:47:23;12.63;;;4.50;;
43449;SDS011;29041;42.266;23.110;2023-11-21T13:50:25;18.27;;;7.13;;
43449;SDS011;29041;42.266;23.110;2023-11-21T13:53:19;18.38;;;5.30;;
43449;SDS011;29041;42.266;23.110;2023-11-21T13:56:08;8.77;;;4.55;;
43449;SDS011;29041;42.266;23.110;2023-11-21T13:58:56;24.33;;;12.63;;
43449;SDS011;29041;42.266;23.110;2023-11-21T14:01:49;30.98;;;15.20;;
43449;SDS011;29041;42.266;23.110;2023-11-21T14:04:44;11.88;;;5.43;;
43449;SDS011;29041;42.266;23.110;2023-11-21T14:07:40;12.02;;;5.25;;
43449;SDS011;29041;42.266;23.110;2023-11-21T14:10:34;45.78;;;22.52;;
43449;SDS011;29041;42.266;23.110;2023-11-21T14:13:28;14.35;;;7.13;;
43449;SDS011;29041;42.266;23.110;2023-11-21T14:16:15;11.90;;;5.22;;
43449;SDS011;29041;42.266;23.110;2023-11-21T14:19:03;9.55;;;5.30;;
43449;SDS011;29041;42.266;23.110;2023-11-21T14:22:01;23.73;;;12.45;;
43449;SDS011;29041;42.266;23.110;2023-11-21T14:24:48;17.38;;;10.02;;
43449;SDS011;29041;42.266;23.110;2023-11-21T14:27:39;20.95;;;8.07;;
43449;SDS011;29041;42.266;23.110;2023-11-21T14:30:26;19.75;;;7.55;;
43449;SDS011;29041;42.266;23.110;2023-11-21T14:33:15;19.02;;;6.43;;
43449;SDS011;29041;42.266;23.110;2023-11-21T14:36:02;13.55;;;5.38;;
43449;SDS011;29041;42.266;23.110;2023-11-21T14:38:50;10.65;;;4.57;;
43449;SDS011;29041;42.266;23.110;2023-11-21T14:41:37;8.25;;;4.43;;
43449;SDS011;29041;42.266;23.110;2023-11-21T14:44:26;44.03;;;17.75;;
43449;SDS011;29041;42.266;23.110;2023-11-21T14:50:15;44.72;;;17.75;;
43449;SDS011;29041;42.266;23.110;2023-11-21T14:53:19;47.80;;;19.30;;
43449;SDS011;29041;42.266;23.110;2023-11-21T14:56:27;56.45;;;29.02;;
43449;SDS011;29041;42.266;23.110;2023-11-21T14:59:16;38.38;;;18.67;;
43449;SDS011;29041;42.266;23.110;2023-11-21T15:02:05;38.58;;;17.98;;
43449;SDS011;29041;42.266;23.110;2023-11-21T15:05:00;31.20;;;14.18;;
43449;SDS011;29041;42.266;23.110;2023-11-21T15:07:48;23.40;;;12.18;;
43449;SDS011;29041;42.266;23.110;2023-11-21T15:10:35;33.05;;;13.98;;
43449;SDS011;29041;42.266;23.110;2023-11-21T15:13:31;25.02;;;10.80;;
43449;SDS011;29041;42.266;23.110;2023-11-21T15:16:18;22.25;;;11.35;;
43449;SDS011;29041;42.266;23.110;2023-11-21T15:19:07;29.17;;;13.30;;
43449;SDS011;29041;42.266;23.110;2023-11-21T15:21:54;28.02;;;12.30;;
43449;SDS011;29041;42.266;23.110;2023-11-21T15:24:42;30.23;;;13.95;;
43449;SDS011;29041;42.266;23.110;2023-11-21T15:27:32;36.00;;;14.07;;
43449;SDS011;29041;42.266;23.110;2023-11-21T15:30:19;48.33;;;15.02;;
43449;SDS011;29041;42.266;23.110;2023-11-21T15:33:10;24.45;;;11.82;;
43449;SDS011;29041;42.266;23.110;2023-11-21T15:35:59;33.00;;;12.88;;
43449;SDS011;29041;42.266;23.110;2023-11-21T15:38:46;27.98;;;11.45;;
43449;SDS011;29041;42.266;23.110;2023-11-21T15:41:33;44.45;;;15.57;;
43449;SDS011;29041;42.266;23.110;2023-11-21T15:44:20;28.25;;;12.80;;
43449;SDS011;29041;42.266;23.110;2023-11-21T15:47:08;27.02;;;13.77;;
43449;SDS011;29041;42.266;23.110;2023-11-21T15:49:55;37.25;;;15.60;;
43449;SDS011;29041;42.266;23.110;2023-11-21T15:52:44;61.38;;;25.02;;
43449;SDS011;29041;42.266;23.110;2023-11-21T15:55:32;24.80;;;10.73;;
43449;SDS011;29041;42.266;23.110;2023-11-21T15:58:21;29.17;;;12.52;;
43449;SDS011;29041;42.266;23.110;2023-11-21T16:01:10;23.67;;;12.82;;
43449;SDS011;29041;42.266;23.110;2023-11-21T16:03:58;28.42;;;11.45;;
43449;SDS011;29041;42.266;23.110;2023-11-21T16:06:46;24.08;;;9.75;;
43449;SDS011;29041;42.266;23.110;2023-11-21T16:09:35;25.15;;;10.82;;
43449;SDS011;29041;42.266;23.110;2023-11-21T16:12:23;12.85;;;7.32;;
43449;SDS011;29041;42.266;23.110;2023-11-21T16:15:10;20.98;;;8.95;;
43449;SDS011;29041;42.266;23.110;2023-11-21T16:17:58;22.67;;;9.52;;
43449;SDS011;29041;42.266;23.110;2023-11-21T16:20:45;27.02;;;12.07;;
43449;SDS011;29041;42.266;23.110;2023-11-21T16:23:32;30.92;;;12.07;;
43449;SDS011;29041;42.266;23.110;2023-11-21T16:26:20;39.33;;;16.13;;
43449;SDS011;29041;42.266;23.110;2023-11-21T16:29:07;36.88;;;16.30;;
43449;SDS011;29041;42.266;23.110;2023-11-21T16:31:55;57.20;;;20.50;;
43449;SDS011;29041;42.266;23.110;2023-11-21T16:34:42;51.03;;;21.92;;